Time;durP1;ratioP1;P1;durP2;ratioP2;P2;SDS_P1;SDS_P2;PMS_P1;PMS_P2;Temp;Humidity;BMP_temperature;BMP_pressure;BME280_temperature;BME280_humidity;BME280_pressure;Samples;Min_cycle;Max_cycle;Signal;HPM_P1;HPM_P2
2022/06/03 00:02:34;;;;;;;3.67;3.38;;;12.50;99.90;;;;;;4995268;28;20431;-44
2022/06/03 00:05:58;;;;;;;7.00;3.95;;;12.50;99.90;;;;;;4997563;28;20408;-50
2022/06/03 00:09:04;;;;;;;8.60;4.05;;;12.50;99.90;;;;;;4956615;29;20220;-48
2022/06/03 00:12:12;;;;;;;3.92;3.58;;;12.40;99.90;;;;;;4927394;28;20220;-46
2022/06/03 00:15:01;;;;;;;4.35;3.50;;;12.40;99.90;;;;;;4979076;28;20432;-49
2022/06/03 00:17:56;;;;;;;7.20;4.75;;;12.30;99.90;;;;;;4996636;28;20237;-47
2022/06/03 00:20:35;;;;;;;3.22;3.00;;;12.10;99.90;;;;;;4997247;28;20557;-46
2022/06/03 00:23:33;;;;;;;4.40;4.00;;;11.90;99.90;;;;;;4997108;28;20308;-46
2022/06/03 00:26:38;;;;;;;4.43;4.03;;;11.90;99.90;;;;;;4997502;28;20612;-47
2022/06/03 00:29:20;;;;;;;6.20;4.22;;;11.90;99.90;;;;;;4994880;28;20219;-44
2022/06/03 00:32:25;;;;;;;7.40;4.43;;;11.90;99.90;;;;;;4991895;28;20300;-45
2022/06/03 00:35:16;;;;;;;4.10;3.75;;;11.80;99.90;;;;;;4997257;28;20217;-48
2022/06/03 00:38:12;;;;;;;6.05;3.72;;;11.90;99.90;;;;;;4995479;28;20300;-47
2022/06/03 00:41:03;;;;;;;6.25;3.92;;;11.80;99.90;;;;;;4991829;28;20205;-42
2022/06/03 00:43:49;;;;;;;4.60;3.88;;;11.80;99.90;;;;;;4987273;28;20552;-42
2022/06/03 00:46:35;;;;;;;3.78;3.47;;;11.80;99.90;;;;;;4994957;28;20511;-48
2022/06/03 00:49:20;;;;;;;4.22;3.67;;;11.70;99.90;;;;;;4997245;28;20222;-47
2022/06/03 00:52:08;;;;;;;4.15;3.70;;;11.70;99.90;;;;;;4991448;28;20727;-46
2022/06/03 00:55:04;;;;;;;6.78;4.60;;;11.70;99.90;;;;;;4996764;28;20205;-46
2022/06/03 00:57:58;;;;;;;4.63;3.67;;;11.70;99.90;;;;;;4996381;28;20204;-43
2022/06/03 01:00:25;;;;;;;4.22;3.85;;;11.70;99.90;;;;;;4996590;28;20215;-48
2022/06/03 01:03:13;;;;;;;7.78;3.92;;;11.70;99.90;;;;;;4996602;28;20563;-46
2022/06/03 01:06:27;;;;;;;5.70;4.15;;;11.70;99.90;;;;;;4993553;28;20264;-45
2022/06/03 01:09:15;;;;;;;4.50;4.10;;;11.70;99.90;;;;;;4936442;29;20218;-44
2022/06/03 01:11:48;;;;;;;5.75;5.00;;;11.70;99.90;;;;;;4990294;28;20516;-44
2022/06/03 01:14:48;;;;;;;3.72;3.42;;;11.70;99.90;;;;;;4996749;28;20218;-51
2022/06/03 01:17:53;;;;;;;5.00;3.92;;;11.60;99.90;;;;;;4996235;28;20222;-47
2022/06/03 01:20:33;;;;;;;9.43;4.20;;;11.60;99.90;;;;;;4996341;28;20216;-47
2022/06/03 01:23:03;;;;;;;4.15;3.85;;;11.60;99.90;;;;;;4996454;28;20232;-43
2022/06/03 01:26:07;;;;;;;4.10;3.80;;;11.60;99.90;;;;;;4988159;28;20227;-44
2022/06/03 01:29:09;;;;;;;4.20;3.90;;;11.50;99.90;;;;;;4993518;28;20430;-46
2022/06/03 01:32:10;;;;;;;4.70;4.35;;;11.50;99.90;;;;;;4989418;28;20208;-46
2022/06/03 01:35:10;;;;;;;5.20;4.80;;;11.40;99.90;;;;;;4977249;28;20213;-47
2022/06/03 01:37:47;;;;;;;4.97;4.18;;;11.40;99.90;;;;;;4960302;28;20283;-43
2022/06/03 01:40:52;;;;;;;4.30;3.90;;;11.40;99.90;;;;;;4994791;28;20523;-46
2022/06/03 01:43:47;;;;;;;5.20;4.05;;;11.40;99.90;;;;;;4995457;28;20228;-46
2022/06/03 01:46:24;;;;;;;8.85;5.25;;;11.40;99.90;;;;;;4995340;28;20487;-45
2022/06/03 01:48:58;;;;;;;4.10;3.80;;;11.30;99.90;;;;;;4997647;28;20259;-44
2022/06/03 01:51:37;;;;;;;9.38;4.05;;;11.20;99.90;;;;;;4997606;28;20280;-48
2022/06/03 01:54:26;;;;;;;5.07;4.57;;;11.10;99.90;;;;;;4997349;28;20234;-43
2022/06/03 01:57:33;;;;;;;3.60;3.40;;;11.00;99.90;;;;;;4985878;28;20434;-47
2022/06/03 02:00:15;;;;;;;5.63;4.43;;;11.00;99.90;;;;;;4991501;28;20314;-49
2022/06/03 02:03:09;;;;;;;3.90;3.60;;;11.00;99.90;;;;;;4993831;28;20281;-46
2022/06/03 02:06:02;;;;;;;6.75;4.68;;;10.90;99.90;;;;;;4998296;28;20218;-45
2022/06/03 02:09:26;;;;;;;5.32;4.80;;;10.90;99.90;;;;;;4998532;28;20200;-44
2022/06/03 02:12:21;;;;;;;4.78;4.10;;;10.90;99.90;;;;;;4920739;29;20673;-46
2022/06/03 02:14:55;;;;;;;6.60;4.30;;;10.80;99.90;;;;;;4916090;29;20275;-52
2022/06/03 02:18:00;;;;;;;5.63;5.10;;;10.90;99.90;;;;;;4978173;28;20421;-44
2022/06/03 02:20:53;;;;;;;5.43;4.93;;;10.90;99.90;;;;;;4972892;28;20224;-46
2022/06/03 02:23:39;;;;;;;4.90;4.43;;;10.90;99.90;;;;;;4998450;28;20500;-44
2022/06/03 02:26:22;;;;;;;5.82;5.25;;;10.80;99.90;;;;;;4999199;28;20212;-42
2022/06/03 02:32:37;;;;;;;5.15;4.75;;;10.80;99.90;;;;;;4995361;28;20260;-43
2022/06/03 02:35:16;;;;;;;4.78;4.28;;;10.90;99.90;;;;;;4993760;28;20224;-42
2022/06/03 02:38:26;;;;;;;6.03;5.43;;;10.90;99.90;;;;;;4998529;28;20600;-44
2022/06/03 02:41:08;;;;;;;5.53;5.03;;;11.00;99.90;;;;;;4999477;28;20219;-44
2022/06/03 02:44:12;;;;;;;4.95;4.55;;;10.90;99.90;;;;;;4998886;28;20232;-45
2022/06/03 02:46:45;;;;;;;5.00;4.53;;;10.80;99.90;;;;;;4995213;28;20266;-50
2022/06/03 02:49:23;;;;;;;5.80;5.20;;;10.90;99.90;;;;;;4999665;28;20267;-47
2022/06/03 02:52:14;;;;;;;6.95;5.50;;;10.90;99.90;;;;;;4999378;28;20232;-44
2022/06/03 02:55:01;;;;;;;6.95;6.30;;;10.90;99.90;;;;;;4993253;28;20199;-44
2022/06/03 02:57:53;;;;;;;5.13;4.72;;;11.00;99.90;;;;;;4991497;28;20271;-43
2022/06/03 03:00:23;;;;;;;6.50;5.47;;;11.00;99.90;;;;;;4999226;28;20247;-47
2022/06/03 03:03:28;;;;;;;5.70;5.20;;;11.10;99.90;;;;;;4999365;28;20240;-44
2022/06/03 03:06:24;;;;;;;5.65;5.15;;;11.10;99.90;;;;;;4994873;28;20430;-44
2022/06/03 03:09:24;;;;;;;5.93;5.35;;;11.10;99.90;;;;;;4998817;28;20212;-44
2022/06/03 03:12:13;;;;;;;6.35;5.75;;;11.10;99.90;;;;;;4993017;28;20440;-47
2022/06/03 03:15:07;;;;;;;4.63;4.22;;;11.20;99.90;;;;;;4992314;28;20208;-45
2022/06/03 03:18:16;;;;;;;9.27;5.72;;;11.20;99.90;;;;;;4996626;28;20475;-43
2022/06/03 03:21:02;;;;;;;7.47;6.10;;;11.20;99.90;;;;;;4998450;28;20216;-44
2022/06/03 03:23:44;;;;;;;4.72;4.32;;;11.30;99.90;;;;;;4996864;28;20234;-41
2022/06/03 03:26:30;;;;;;;6.63;4.90;;;11.30;99.90;;;;;;4997969;28;20209;-43
2022/06/03 03:29:28;;;;;;;6.47;5.90;;;11.80;99.90;;;;;;4999102;28;20291;-43
2022/06/03 03:32:09;;;;;;;10.55;6.78;;;12.60;99.90;;;;;;4994760;28;20243;-45
2022/06/03 03:35:06;;;;;;;5.90;5.40;;;13.20;99.90;;;;;;4996266;28;20213;-48
2022/06/03 03:38:13;;;;;;;5.57;5.07;;;13.50;99.90;;;;;;4994555;28;20405;-42
2022/06/03 03:41:03;;;;;;;5.65;5.10;;;14.20;99.90;;;;;;4992602;28;20730;-45
2022/06/03 03:43:37;;;;;;;6.88;6.13;;;14.70;99.90;;;;;;4991135;28;20232;-41
2022/06/03 03:46:25;;;;;;;7.30;5.75;;;14.80;99.90;;;;;;4998506;28;20256;-45
2022/06/03 03:49:26;;;;;;;6.90;6.25;;;15.10;99.90;;;;;;4993486;28;20212;-45
2022/06/03 03:51:56;;;;;;;6.15;5.63;;;15.00;99.90;;;;;;4998073;28;20234;-47
2022/06/03 03:54:41;;;;;;;6.40;5.80;;;15.10;99.90;;;;;;4998515;28;20279;-48
2022/06/03 03:57:41;;;;;;;9.00;6.37;;;15.30;99.90;;;;;;4981924;28;20310;-42
2022/06/03 04:00:34;;;;;;;10.85;6.50;;;15.10;99.90;;;;;;4992287;28;20514;-48
2022/06/03 04:03:19;;;;;;;6.18;5.68;;;15.00;99.90;;;;;;4994794;28;20650;-42
2022/06/03 04:06:10;;;;;;;8.18;6.20;;;14.70;99.90;;;;;;4992784;28;20241;-47
2022/06/03 04:09:07;;;;;;;8.55;7.75;;;14.50;99.90;;;;;;4952735;28;20302;-43
2022/06/03 04:11:49;;;;;;;10.65;6.35;;;14.60;99.90;;;;;;4995228;28;20254;-46
2022/06/03 04:14:53;;;;;;;10.07;7.40;;;14.40;99.90;;;;;;4997272;28;20209;-50
2022/06/03 04:17:27;;;;;;;7.78;6.95;;;14.10;99.90;;;;;;4997374;28;20240;-47
2022/06/03 04:20:36;;;;;;;6.90;6.30;;;14.00;99.90;;;;;;4997399;28;20304;-48
2022/06/03 04:23:45;;;;;;;12.57;10.98;;;13.90;99.90;;;;;;4988759;28;20538;-43
2022/06/03 04:26:22;;;;;;;11.02;7.45;;;13.90;99.90;;;;;;4996880;28;20406;-48
2022/06/03 04:29:37;;;;;;;9.00;8.20;;;14.10;99.90;;;;;;4997255;28;20416;-42
2022/06/03 04:32:39;;;;;;;15.60;9.27;;;14.20;99.90;;;;;;4993525;28;20277;-47
2022/06/03 04:35:41;;;;;;;9.63;8.60;;;14.20;99.90;;;;;;4957104;28;20544;-44
2022/06/03 04:38:20;;;;;;;8.52;7.72;;;14.30;99.90;;;;;;4992308;28;20236;-48
2022/06/03 04:41:34;;;;;;;8.35;7.55;;;14.30;99.90;;;;;;4997094;28;20661;-44
2022/06/03 04:44:26;;;;;;;11.05;8.23;;;14.30;99.90;;;;;;4997120;28;20209;-47
2022/06/03 04:47:21;;;;;;;9.15;8.35;;;14.40;99.90;;;;;;4993557;28;20313;-42
2022/06/03 04:50:24;;;;;;;8.45;7.75;;;14.60;99.90;;;;;;4994037;28;20534;-42
2022/06/03 04:52:55;;;;;;;9.10;8.27;;;14.70;99.90;;;;;;4984112;28;20240;-46
2022/06/03 04:56:19;;;;;;;7.35;6.75;;;14.60;99.90;;;;;;4991258;28;20405;-47
2022/06/03 04:59:08;;;;;;;8.02;7.35;;;14.70;99.90;;;;;;4996482;28;20248;-46
2022/06/03 05:01:57;;;;;;;7.70;6.97;;;14.80;99.90;;;;;;4992169;28;20282;-48
2022/06/03 05:05:03;;;;;;;10.35;7.93;;;14.90;99.90;;;;;;4995136;28;20281;-44
2022/06/03 05:08:11;;;;;;;7.15;6.00;;;15.00;99.90;;;;;;4995507;28;20506;-46
2022/06/03 05:10:57;;;;;;;12.07;6.27;;;15.30;99.90;;;;;;4994833;28;20214;-46
2022/06/03 05:13:47;;;;;;;6.10;5.60;;;15.40;99.90;;;;;;4993956;28;20854;-43
2022/06/03 05:16:39;;;;;;;7.17;6.57;;;15.40;99.90;;;;;;4995766;28;20203;-44
2022/06/03 05:19:25;;;;;;;8.60;7.57;;;15.40;99.90;;;;;;4996217;28;20485;-46
2022/06/03 05:22:13;;;;;;;6.70;5.88;;;15.50;99.90;;;;;;4998193;28;20306;-42
2022/06/03 05:25:14;;;;;;;8.47;5.93;;;15.70;99.90;;;;;;4998656;28;20201;-45
2022/06/03 05:27:48;;;;;;;9.70;7.70;;;15.80;99.90;;;;;;4997858;28;20432;-46
2022/06/03 05:30:33;;;;;;;5.83;5.13;;;16.00;99.90;;;;;;4995994;28;20437;-44
2022/06/03 05:33:53;;;;;;;6.80;6.20;;;16.10;99.90;;;;;;4996964;28;20833;-42
2022/06/03 05:36:28;;;;;;;9.90;6.30;;;16.10;99.90;;;;;;4982223;28;20453;-46
2022/06/03 05:39:13;;;;;;;6.43;5.83;;;16.20;99.90;;;;;;4999954;28;20502;-46
2022/06/03 05:42:23;;;;;;;5.80;5.20;;;16.50;99.90;;;;;;4999101;28;20443;-45
2022/06/03 05:45:25;;;;;;;5.57;4.73;;;16.90;99.90;;;;;;4998325;28;20511;-43
2022/06/03 05:48:17;;;;;;;7.50;5.00;;;17.10;99.90;;;;;;4995278;28;20485;-44
2022/06/03 05:51:06;;;;;;;5.67;5.10;;;17.30;99.90;;;;;;4994180;28;20418;-43
2022/06/03 05:53:56;;;;;;;10.20;5.10;;;17.50;99.90;;;;;;4998972;28;20513;-43
2022/06/03 05:56:29;;;;;;;6.77;5.10;;;17.70;99.90;;;;;;4998817;28;20898;-50
2022/06/03 05:59:22;;;;;;;4.67;4.23;;;17.90;99.90;;;;;;4998322;28;20487;-43
2022/06/03 06:01:59;;;;;;;5.30;4.67;;;18.00;99.90;;;;;;4996891;28;20442;-46
2022/06/03 06:05:06;;;;;;;5.03;4.60;;;17.90;99.90;;;;;;4987016;28;20665;-46
2022/06/03 06:07:47;;;;;;;5.37;4.00;;;18.10;99.90;;;;;;4997827;28;20480;-46
2022/06/03 06:10:37;;;;;;;9.17;5.10;;;18.50;99.90;;;;;;4998800;28;20488;-41
2022/06/03 06:13:31;;;;;;;4.17;3.77;;;18.70;99.90;;;;;;4996284;28;20498;-42
2022/06/03 06:16:28;;;;;;;3.40;3.10;;;19.10;99.90;;;;;;4999672;28;20447;-46
2022/06/03 06:19:14;;;;;;;3.43;3.10;;;19.30;99.90;;;;;;4999548;28;20453;-44
2022/06/03 06:22:02;;;;;;;4.20;3.57;;;19.60;99.90;;;;;;4994109;28;20671;-45
2022/06/03 06:24:29;;;;;;;3.37;3.07;;;20.40;99.90;;;;;;4997809;28;20422;-43
2022/06/03 06:27:24;;;;;;;4.93;3.27;;;21.00;99.90;;;;;;4999902;28;20424;-46
2022/06/03 06:30:45;;;;;;;2.97;2.77;;;21.90;99.90;;;;;;4994640;28;20453;-47
2022/06/03 06:33:29;;;;;;;5.27;3.33;;;22.00;99.90;;;;;;4919919;29;20477;-50
2022/06/03 06:36:09;;;;;;;4.00;3.70;;;22.10;99.90;;;;;;4919277;29;20557;-47
2022/06/03 06:39:15;;;;;;;5.17;4.00;;;22.30;99.90;;;;;;4980148;28;20443;-45
2022/06/03 06:42:01;;;;;;;8.00;3.73;;;22.50;99.90;;;;;;4999313;28;20414;-44
2022/06/03 06:44:50;;;;;;;5.20;3.33;;;22.30;99.90;;;;;;4998989;28;20406;-47
2022/06/03 06:47:34;;;;;;;3.83;3.20;;;22.30;99.90;;;;;;4999136;28;20617;-44
2022/06/03 06:50:21;;;;;;;4.20;3.80;;;22.50;99.90;;;;;;4999762;28;20435;-39
2022/06/03 06:52:54;;;;;;;15.33;3.50;;;22.90;99.90;;;;;;4995175;28;20538;-44
2022/06/03 06:55:31;;;;;;;6.03;3.60;;;23.60;99.90;;;;;;5000547;28;20425;-49
2022/06/03 06:58:20;;;;;;;3.17;2.90;;;24.30;99.90;;;;;;5000126;28;20429;-44
2022/06/03 07:00:49;;;;;;;3.50;3.20;;;25.40;99.90;;;;;;4999408;28;20658;-45
2022/06/03 07:03:41;;;;;;;4.40;2.67;;;25.90;99.90;;;;;;4998470;28;20528;-45
2022/06/03 07:06:41;;;;;;;2.80;2.50;;;27.30;97.00;;;;;;4991168;28;20449;-43
2022/06/03 07:09:38;;;;;;;2.73;2.03;;;28.50;93.20;;;;;;4986578;28;20624;-46
2022/06/03 07:12:21;;;;;;;7.47;3.23;;;30.50;87.40;;;;;;4964902;28;20538;-45
2022/06/03 07:15:53;;;;;;;3.53;2.67;;;33.30;72.30;;;;;;4998572;28;20448;-49
2022/06/03 07:22:24;;;;;;;4.13;3.07;;;33.80;61.80;;;;;;4998324;28;20510;-45
2022/06/03 07:24:56;;;;;;;3.90;2.60;;;35.30;58.10;;;;;;4963440;28;20703;-51
2022/06/03 07:27:50;;;;;;;2.67;2.50;;;36.50;54.40;;;;;;4998345;28;20762;-46
2022/06/03 07:30:37;;;;;;;3.07;2.77;;;35.50;54.80;;;;;;4992673;28;20451;-44
2022/06/03 07:33:13;;;;;;;3.30;3.00;;;34.40;55.20;;;;;;4997715;28;20538;-47
2022/06/03 07:36:01;;;;;;;3.97;3.07;;;33.90;55.90;;;;;;4998294;28;20458;-47
2022/06/03 07:38:54;;;;;;;2.93;2.63;;;34.80;55.70;;;;;;4990005;28;20502;-48
2022/06/03 07:41:37;;;;;;;16.30;2.67;;;34.20;54.40;;;;;;4997686;28;20849;-51
2022/06/03 07:44:35;;;;;;;3.33;2.90;;;35.20;54.50;;;;;;4998424;28;20518;-46
2022/06/03 07:47:06;;;;;;;7.40;3.80;;;34.60;54.10;;;;;;4994821;28;20455;-44
2022/06/03 07:49:39;;;;;;;2.77;2.57;;;34.30;54.00;;;;;;4992808;28;20440;-44
2022/06/03 07:52:25;;;;;;;3.60;2.83;;;34.80;53.60;;;;;;5001610;28;20703;-47
2022/06/03 07:54:58;;;;;;;2.33;2.23;;;34.80;52.50;;;;;;5001485;28;20450;-51
2022/06/03 07:57:28;;;;;;;2.37;2.17;;;35.10;54.50;;;;;;4996903;28;20463;-44
2022/06/03 08:00:04;;;;;;;2.70;2.50;;;36.60;50.70;;;;;;4998079;28;20489;-45
2022/06/03 08:02:32;;;;;;;3.00;2.70;;;36.20;51.20;;;;;;4975947;28;20722;-45
2022/06/03 08:05:04;;;;;;;2.40;2.20;;;36.70;51.00;;;;;;4994106;28;20502;-46
2022/06/03 08:13:24;;;;;;;4.20;3.40;;;35.80;51.00;;;;;;4997698;28;20455;-49
2022/06/03 08:16:01;;;;;;;3.57;3.27;;;35.90;51.10;;;;;;4997316;28;20511;-45
2022/06/03 08:18:33;;;;;;;3.73;2.60;;;34.10;52.00;;;;;;4989711;28;20442;-46
2022/06/03 08:21:42;;;;;;;4.17;3.77;;;33.60;53.00;;;;;;4996547;28;20493;-44
2022/06/03 08:24:18;;;;;;;5.90;3.40;;;34.20;52.40;;;;;;4994602;28;20849;-50
2022/06/03 08:26:51;;;;;;;3.17;2.97;;;35.00;51.60;;;;;;4997257;28;20778;-45
2022/06/03 08:29:28;;;;;;;3.00;2.80;;;34.60;51.40;;;;;;4997167;28;20467;-44
2022/06/03 08:31:58;;;;;;;6.70;3.50;;;36.00;51.10;;;;;;4996872;28;20506;-46
2022/06/03 08:34:42;;;;;;;3.50;3.20;;;36.10;50.40;;;;;;4996767;28;20435;-43
2022/06/03 08:37:23;;;;;;;3.47;2.80;;;35.20;52.50;;;;;;4997188;28;20443;-47
2022/06/03 08:39:56;;;;;;;2.47;2.27;;;34.60;52.00;;;;;;4996783;28;20498;-44
2022/06/03 08:42:30;;;;;;;3.50;3.30;;;34.40;53.90;;;;;;4996934;28;20562;-47
2022/06/03 08:44:58;;;;;;;2.83;2.60;;;33.20;53.90;;;;;;4997157;28;20510;-49
2022/06/03 08:47:44;;;;;;;9.13;4.10;;;34.90;53.10;;;;;;4996710;28;20446;-47
2022/06/03 08:50:23;;;;;;;2.87;2.53;;;35.80;51.20;;;;;;4996793;28;20461;-41
2022/06/03 08:53:12;;;;;;;2.33;2.20;;;37.10;50.10;;;;;;4996486;28;20463;-49
2022/06/03 08:56:00;;;;;;;3.23;3.00;;;37.80;49.10;;;;;;4996665;28;20471;-46
2022/06/03 08:58:45;;;;;;;3.43;3.13;;;39.40;47.70;;;;;;4996356;28;20443;-46
2022/06/03 09:01:36;;;;;;;2.80;2.60;;;38.90;47.60;;;;;;4996758;28;20490;-48
2022/06/03 09:04:32;;;;;;;2.73;2.53;;;38.50;46.80;;;;;;4989407;28;20455;-50
2022/06/03 09:07:22;;;;;;;3.00;2.60;;;38.40;47.60;;;;;;4997454;28;20470;-49
2022/06/03 09:10:46;;;;;;;3.77;3.47;;;39.00;47.10;;;;;;4999781;28;20465;-47
2022/06/03 09:13:30;;;;;;;4.53;3.17;;;38.40;46.50;;;;;;4938810;29;20669;-42
2022/06/03 09:15:59;;;;;;;4.30;3.10;;;36.40;49.10;;;;;;4939257;29;20840;-47
2022/06/03 09:18:40;;;;;;;3.80;3.50;;;34.90;50.60;;;;;;4976964;28;20976;-44
2022/06/03 09:21:13;;;;;;;2.70;2.50;;;35.40;49.90;;;;;;5000884;28;20488;-48
2022/06/03 09:23:48;;;;;;;2.53;2.33;;;35.10;50.40;;;;;;5000900;28;20655;-43
2022/06/03 09:26:26;;;;;;;6.17;2.33;;;36.10;49.20;;;;;;5000745;28;20770;-48
2022/06/03 09:28:57;;;;;;;5.97;2.60;;;36.70;48.90;;;;;;5000248;28;20439;-46
2022/06/03 09:31:25;;;;;;;2.83;2.63;;;36.20;48.80;;;;;;5000148;28;20475;-43
2022/06/03 09:33:56;;;;;;;8.07;2.80;;;34.50;50.80;;;;;;5000008;28;20475;-47
2022/06/03 09:36:24;;;;;;;2.90;2.70;;;31.90;52.70;;;;;;4999759;28;20487;-47
2022/06/03 09:39:08;;;;;;;2.33;2.13;;;29.80;55.60;;;;;;4995461;28;20449;-44
2022/06/03 09:41:57;;;;;;;3.20;3.00;;;28.70;57.20;;;;;;4998516;28;20649;-44
2022/06/03 09:44:26;;;;;;;2.40;2.20;;;27.70;58.40;;;;;;4999908;28;20443;-45
2022/06/03 09:47:02;;;;;;;2.60;2.40;;;26.80;61.50;;;;;;4999855;28;20693;-45
2022/06/03 09:49:32;;;;;;;2.13;2.03;;;26.80;62.40;;;;;;4994121;28;20464;-41
2022/06/03 09:52:12;;;;;;;3.60;2.17;;;26.70;62.00;;;;;;4999585;28;20528;-45
2022/06/03 09:54:42;;;;;;;5.03;2.60;;;26.60;61.30;;;;;;4994604;28;20480;-46
2022/06/03 09:57:23;;;;;;;3.87;2.90;;;26.40;62.10;;;;;;4999418;28;20442;-46
2022/06/03 10:00:21;;;;;;;3.37;2.60;;;26.30;61.70;;;;;;4999832;28;20913;-42
2022/06/03 10:02:49;;;;;;;2.00;1.80;;;25.90;61.10;;;;;;4994424;28;20819;-44
2022/06/03 10:05:19;;;;;;;2.47;2.27;;;25.70;62.70;;;;;;4996129;28;20448;-44
2022/06/03 10:07:48;;;;;;;2.27;2.00;;;25.60;63.90;;;;;;5000128;28;20444;-43
2022/06/03 10:13:06;;;;;;;5.00;1.63;;;25.20;62.40;;;;;;4997219;28;20442;-45
2022/06/03 10:15:53;;;;;;;2.20;2.10;;;24.90;63.30;;;;;;5000646;28;20422;-46
2022/06/03 10:18:39;;;;;;;2.13;1.93;;;25.20;64.30;;;;;;4999548;28;20417;-46
2022/06/03 10:21:07;;;;;;;2.83;2.30;;;25.10;64.60;;;;;;5000011;28;20467;-45
2022/06/03 10:23:45;;;;;;;4.13;2.83;;;24.90;64.30;;;;;;5000304;28;20445;-44
2022/06/03 10:26:29;;;;;;;3.83;1.90;;;24.70;64.30;;;;;;4999575;28;20445;-48
2022/06/03 10:29:04;;;;;;;3.83;1.97;;;24.80;64.80;;;;;;4999865;28;20441;-43
2022/06/03 10:31:33;;;;;;;3.50;1.87;;;25.00;64.00;;;;;;4993400;28;20442;-46
2022/06/03 10:34:05;;;;;;;2.17;1.90;;;25.20;64.20;;;;;;4999394;28;20627;-47
2022/06/03 10:36:37;;;;;;;1.67;1.57;;;25.10;62.20;;;;;;4998180;28;20440;-47
2022/06/03 10:39:09;;;;;;;1.50;1.40;;;25.30;62.50;;;;;;4999085;28;20470;-47
2022/06/03 10:41:43;;;;;;;1.57;1.47;;;25.50;60.50;;;;;;4998500;28;20503;-47
2022/06/03 10:44:14;;;;;;;2.50;1.73;;;25.70;60.80;;;;;;4999179;28;20450;-48
2022/06/03 10:47:04;;;;;;;1.27;1.17;;;26.00;60.00;;;;;;4999096;28;20547;-49
2022/06/03 10:49:37;;;;;;;2.60;2.07;;;25.80;59.00;;;;;;4993139;28;20442;-48
2022/06/03 11:03:27;;;;;;;1.77;1.60;;;25.00;61.50;;;;;;4998971;28;20505;-44
2022/06/03 11:05:54;;;;;;;1.67;1.57;;;25.10;62.60;;;;;;4994931;28;20437;-47
2022/06/03 11:08:22;;;;;;;2.80;2.30;;;25.30;60.60;;;;;;4998928;28;20454;-46
2022/06/03 11:10:53;;;;;;;3.00;1.83;;;25.30;60.50;;;;;;4999001;28;20467;-44
2022/06/03 11:13:32;;;;;;;1.93;1.70;;;25.30;61.30;;;;;;4998641;28;20486;-44
2022/06/03 11:16:18;;;;;;;2.90;2.07;;;25.20;62.20;;;;;;4998999;28;20449;-46
2022/06/03 11:18:46;;;;;;;3.33;2.80;;;24.90;61.90;;;;;;4998809;28;20418;-44
2022/06/03 11:21:27;;;;;;;1.83;1.73;;;24.90;63.20;;;;;;4998003;28;20661;-45
2022/06/03 11:24:00;;;;;;;1.57;1.47;;;25.00;63.20;;;;;;4998517;28;20513;-42
2022/06/03 11:26:40;;;;;;;2.00;1.90;;;25.20;61.90;;;;;;4998402;28;20447;-46
2022/06/03 11:29:15;;;;;;;1.70;1.60;;;25.10;61.90;;;;;;4998165;28;20418;-48
2022/06/03 11:31:47;;;;;;;1.80;1.70;;;25.10;62.20;;;;;;4997531;28;20441;-43
2022/06/03 11:34:41;;;;;;;1.50;1.40;;;25.10;61.70;;;;;;5000534;28;20496;-49
2022/06/03 11:37:16;;;;;;;2.27;2.07;;;25.20;62.90;;;;;;5002284;28;20515;-45
2022/06/03 11:39:48;;;;;;;1.67;1.57;;;25.60;62.50;;;;;;4999095;28;20443;-46
2022/06/03 11:42:48;;;;;;;2.50;2.30;;;25.50;61.80;;;;;;4998489;28;20443;-48
2022/06/03 11:45:22;;;;;;;2.27;1.80;;;25.30;62.50;;;;;;4996354;28;20454;-45
2022/06/03 11:48:21;;;;;;;1.50;1.40;;;25.40;64.00;;;;;;4997780;28;20458;-47
2022/06/03 11:50:49;;;;;;;2.57;1.53;;;25.40;62.60;;;;;;4975555;28;20684;-45
2022/06/03 11:53:24;;;;;;;2.70;2.10;;;25.40;62.20;;;;;;4997798;28;20822;-47
2022/06/03 11:56:00;;;;;;;2.10;1.90;;;25.00;62.70;;;;;;4997913;28;20451;-48
2022/06/03 11:58:45;;;;;;;1.83;1.60;;;24.90;62.30;;;;;;4997806;28;20414;-46
2022/06/03 12:01:24;;;;;;;1.67;1.57;;;24.90;62.90;;;;;;4997875;28;20493;-48
2022/06/03 12:04:22;;;;;;;2.00;1.90;;;25.10;63.90;;;;;;4990969;28;20489;-42
2022/06/03 12:07:17;;;;;;;1.77;1.67;;;25.00;61.90;;;;;;4984695;28;20494;-48
2022/06/03 12:10:04;;;;;;;4.40;2.20;;;25.10;63.40;;;;;;4992466;28;20463;-48
2022/06/03 12:15:30;;;;;;;2.10;1.90;;;25.20;62.60;;;;;;4991754;28;20769;-48
2022/06/03 12:18:32;;;;;;;1.60;1.50;;;25.00;63.10;;;;;;4997694;28;20447;-48
2022/06/03 12:21:06;;;;;;;3.93;1.80;;;25.20;62.90;;;;;;4992610;28;20916;-45
2022/06/03 12:23:37;;;;;;;2.50;2.33;;;25.10;63.20;;;;;;4989962;28;20477;-48
2022/06/03 12:26:32;;;;;;;1.73;1.63;;;24.90;63.40;;;;;;4997486;28;20446;-45
2022/06/03 12:29:25;;;;;;;2.90;2.20;;;25.00;63.90;;;;;;4994816;28;20526;-49
2022/06/03 12:31:54;;;;;;;2.20;2.00;;;25.20;64.30;;;;;;4992023;28;20871;-44
2022/06/03 12:34:25;;;;;;;2.00;1.83;;;25.40;65.80;;;;;;4996593;28;20694;-43
2022/06/03 12:37:01;;;;;;;2.00;1.90;;;25.60;63.30;;;;;;4997539;28;20427;-45
2022/06/03 12:39:51;;;;;;;3.00;1.53;;;25.70;63.40;;;;;;4993541;28;20454;-45
2022/06/03 12:42:28;;;;;;;2.27;1.87;;;25.90;63.90;;;;;;4996656;28;20478;-40
2022/06/03 12:45:03;;;;;;;2.13;1.93;;;25.90;61.90;;;;;;4996772;28;20452;-45
2022/06/03 12:47:36;;;;;;;1.80;1.70;;;25.70;63.00;;;;;;4997086;28;20446;-40
2022/06/03 12:50:05;;;;;;;1.87;1.77;;;25.50;63.50;;;;;;4997153;28;20506;-47
2022/06/03 12:52:35;;;;;;;1.30;1.23;;;25.40;63.40;;;;;;4996751;28;20725;-44
2022/06/03 12:55:12;;;;;;;2.43;2.20;;;25.30;63.30;;;;;;4997033;28;20658;-47
2022/06/03 12:57:48;;;;;;;1.50;1.40;;;25.20;63.00;;;;;;4996809;28;20687;-44
2022/06/03 13:00:19;;;;;;;1.77;1.67;;;25.20;65.00;;;;;;4997279;28;20402;-45
2022/06/03 13:03:07;;;;;;;1.93;1.80;;;25.20;65.10;;;;;;4996941;28;20522;-44
2022/06/03 13:05:46;;;;;;;2.00;1.80;;;25.30;65.80;;;;;;4990030;28;20781;-45
2022/06/03 13:08:28;;;;;;;2.00;1.90;;;25.60;64.90;;;;;;4997048;28;20443;-52
2022/06/03 13:11:19;;;;;;;2.30;2.10;;;26.00;64.20;;;;;;4996460;28;20418;-44
2022/06/03 13:14:17;;;;;;;2.00;1.90;;;26.10;62.90;;;;;;4991398;28;20442;-41
2022/06/03 13:16:47;;;;;;;2.63;2.07;;;26.20;63.10;;;;;;4982281;28;20465;-45
2022/06/03 13:19:22;;;;;;;2.13;1.60;;;26.10;63.60;;;;;;4983871;28;20436;-48
2022/06/03 13:22:03;;;;;;;1.77;1.67;;;26.30;64.20;;;;;;4984973;28;20504;-41
2022/06/03 13:24:38;;;;;;;1.80;1.70;;;26.50;63.60;;;;;;4994850;28;20495;-43
2022/06/03 13:27:20;;;;;;;2.40;2.20;;;26.70;63.90;;;;;;4991952;28;20678;-44
2022/06/03 13:29:51;;;;;;;2.03;1.93;;;26.20;63.00;;;;;;4980618;28;20419;-46
2022/06/03 13:32:35;;;;;;;5.70;2.57;;;26.00;64.20;;;;;;4979640;28;20496;-47
2022/06/03 13:35:18;;;;;;;3.40;2.50;;;25.70;63.90;;;;;;4980578;28;20827;-44
2022/06/03 13:38:11;;;;;;;2.50;2.30;;;25.60;64.90;;;;;;4982586;28;20463;-46
2022/06/03 13:40:39;;;;;;;2.30;2.10;;;25.50;65.00;;;;;;4978127;28;20671;-44
2022/06/03 13:43:20;;;;;;;4.73;2.50;;;25.50;65.80;;;;;;4981580;28;20459;-46
2022/06/03 13:46:06;;;;;;;3.80;2.03;;;25.60;65.00;;;;;;4983582;28;20448;-52
2022/06/03 13:48:44;;;;;;;2.27;2.10;;;25.50;66.00;;;;;;4978004;28;20441;-46
2022/06/03 13:51:21;;;;;;;1.93;1.83;;;25.70;65.20;;;;;;4978269;28;20479;-42
2022/06/03 13:53:55;;;;;;;1.93;1.83;;;25.90;65.00;;;;;;4979601;28;20649;-46
2022/06/03 13:56:27;;;;;;;2.37;2.13;;;25.80;65.10;;;;;;4969497;28;20434;-45
2022/06/03 13:58:56;;;;;;;2.37;2.27;;;25.70;66.40;;;;;;4985197;28;20523;-45
2022/06/03 14:01:29;;;;;;;3.73;2.50;;;25.80;66.70;;;;;;4985137;28;20490;-48
2022/06/03 14:04:14;;;;;;;1.90;1.80;;;26.00;65.80;;;;;;4980716;28;20438;-43
2022/06/03 14:06:46;;;;;;;2.30;1.90;;;25.60;66.40;;;;;;4981729;28;20698;-43
2022/06/03 14:09:45;;;;;;;3.23;2.10;;;25.70;68.00;;;;;;4987067;28;20756;-43
2022/06/03 14:12:21;;;;;;;2.50;2.30;;;25.80;67.00;;;;;;4985242;28;20464;-44
2022/06/03 14:15:12;;;;;;;5.97;2.60;;;25.90;66.90;;;;;;4994888;28;20451;-45
2022/06/03 14:17:45;;;;;;;1.93;1.83;;;25.90;67.30;;;;;;4984566;28;20776;-43
2022/06/03 14:20:16;;;;;;;2.80;2.00;;;25.90;67.50;;;;;;4997988;28;20475;-43
2022/06/03 14:22:53;;;;;;;2.43;1.83;;;25.80;67.10;;;;;;5000594;28;20803;-50
2022/06/03 14:26:01;;;;;;;2.13;1.93;;;25.70;67.20;;;;;;5000504;28;20456;-47
2022/06/03 14:28:54;;;;;;;3.70;2.90;;;25.50;67.20;;;;;;4988943;28;20509;-42
2022/06/03 14:31:38;;;;;;;3.80;2.20;;;25.00;68.40;;;;;;4999282;28;20421;-45
2022/06/03 14:34:29;;;;;;;2.50;2.10;;;24.90;69.20;;;;;;4998820;28;20451;-45
2022/06/03 14:36:59;;;;;;;2.50;2.30;;;25.00;70.20;;;;;;4994795;28;20680;-48
2022/06/03 14:39:30;;;;;;;5.70;2.30;;;25.20;70.40;;;;;;4997759;28;20522;-45
2022/06/03 14:42:10;;;;;;;3.50;2.60;;;25.30;69.60;;;;;;4998067;28;20492;-44
2022/06/03 14:44:41;;;;;;;2.53;2.40;;;25.00;69.20;;;;;;4996529;28;20471;-45
2022/06/03 14:47:17;;;;;;;3.40;2.73;;;25.00;69.50;;;;;;4999140;28;20521;-45
2022/06/03 14:49:47;;;;;;;2.77;2.57;;;25.10;70.30;;;;;;4998703;28;20422;-47